Time;durP1;ratioP1;P1;durP2;ratioP2;P2;SDS_P1;SDS_P2;PMS_P1;PMS_P2;Temp;Humidity;BMP_temperature;BMP_pressure;BME280_temperature;BME280_humidity;BME280_pressure;Samples;Min_cycle;Max_cycle;Signal;HPM_P1;HPM_P2
2023/06/14 00:02:08;;;;;;;2.03;2.03;;;23.60;63.20;;;;;;5107769;27;43453;-67
2023/06/14 00:04:37;;;;;;;2.00;2.00;;;23.60;63.30;;;;;;5106468;28;43819;-67
2023/06/14 00:07:08;;;;;;;2.00;2.00;;;23.60;63.70;;;;;;5107590;28;43518;-68
2023/06/14 00:09:38;;;;;;;2.03;2.03;;;23.50;63.80;;;;;;5107475;27;43487;-67
2023/06/14 00:12:08;;;;;;;2.07;2.07;;;23.50;63.90;;;;;;5107918;27;43498;-67
2023/06/14 00:14:36;;;;;;;1.97;1.87;;;23.50;64.10;;;;;;5107751;27;43611;-67
2023/06/14 00:17:07;;;;;;;2.10;2.10;;;23.40;64.40;;;;;;5107777;28;44012;-68
2023/06/14 00:19:37;;;;;;;2.00;2.00;;;23.30;64.50;;;;;;5107775;27;43444;-68
2023/06/14 00:22:07;;;;;;;2.00;2.00;;;23.30;64.40;;;;;;5107137;27;43399;-68
2023/06/14 00:24:35;;;;;;;2.00;2.00;;;23.30;64.60;;;;;;5107294;28;43703;-67
2023/06/14 00:27:03;;;;;;;1.90;1.90;;;23.30;64.70;;;;;;5103197;28;43550;-68
2023/06/14 00:29:30;;;;;;;1.97;1.87;;;23.30;64.90;;;;;;5108050;28;43472;-68
2023/06/14 00:31:58;;;;;;;1.93;1.93;;;23.30;64.80;;;;;;5106996;28;43407;-68
2023/06/14 00:34:29;;;;;;;1.87;1.87;;;23.30;64.60;;;;;;5106619;27;43699;-67
2023/06/14 00:36:58;;;;;;;2.10;2.10;;;23.40;64.10;;;;;;5107881;27;43379;-67
2023/06/14 00:39:27;;;;;;;2.00;1.90;;;23.60;63.80;;;;;;5111992;27;43462;-67
2023/06/14 00:41:56;;;;;;;1.93;1.93;;;23.60;63.30;;;;;;5113257;27;43402;-67
2023/06/14 00:44:24;;;;;;;2.00;2.00;;;23.60;63.70;;;;;;5109748;27;43994;-68
2023/06/14 00:46:52;;;;;;;2.10;2.10;;;23.60;63.40;;;;;;5110974;27;43396;-67
2023/06/14 00:49:23;;;;;;;1.97;1.97;;;23.50;63.80;;;;;;5109892;28;43800;-67
2023/06/14 00:51:51;;;;;;;2.00;2.00;;;23.50;63.90;;;;;;5110520;27;43473;-68
2023/06/14 00:54:19;;;;;;;2.00;2.00;;;23.50;64.10;;;;;;5111035;27;43753;-67
2023/06/14 00:56:49;;;;;;;1.73;1.73;;;23.40;64.10;;;;;;5110526;27;43464;-68
2023/06/14 00:59:17;;;;;;;2.10;2.10;;;23.40;64.50;;;;;;5111530;27;43382;-67
2023/06/14 01:01:45;;;;;;;2.07;2.07;;;23.30;64.50;;;;;;5110465;28;43443;-69
2023/06/14 01:04:13;;;;;;;2.00;2.00;;;23.30;64.60;;;;;;5110239;27;43689;-68
2023/06/14 01:06:44;;;;;;;2.20;2.20;;;23.30;64.60;;;;;;5110564;28;43466;-68
2023/06/14 01:09:16;;;;;;;2.00;2.00;;;23.30;64.80;;;;;;5110119;28;43351;-68
2023/06/14 01:11:51;;;;;;;2.13;2.13;;;23.30;65.00;;;;;;5111068;27;44403;-69
2023/06/14 01:14:19;;;;;;;1.90;1.90;;;23.20;64.80;;;;;;5104931;28;43812;-69
2023/06/14 01:16:47;;;;;;;2.20;2.20;;;23.30;64.90;;;;;;5110025;28;43299;-67
2023/06/14 01:19:15;;;;;;;2.00;2.00;;;23.30;65.00;;;;;;5109747;28;43365;-68
2023/06/14 01:21:43;;;;;;;2.00;2.00;;;23.20;65.00;;;;;;5111484;27;43373;-69
2023/06/14 01:24:13;;;;;;;2.03;2.03;;;23.20;65.10;;;;;;5109364;28;45735;-68
2023/06/14 01:26:45;;;;;;;1.90;1.90;;;23.20;64.80;;;;;;5110687;27;43409;-68
2023/06/14 01:29:16;;;;;;;2.03;2.03;;;23.40;64.50;;;;;;5110418;27;43393;-68
2023/06/14 01:31:45;;;;;;;2.37;2.37;;;23.50;64.00;;;;;;5110498;27;43484;-68
2023/06/14 01:34:13;;;;;;;2.00;2.00;;;23.60;63.70;;;;;;5110511;27;44858;-67
2023/06/14 01:36:42;;;;;;;2.00;2.00;;;23.60;63.20;;;;;;5109791;28;43375;-68
2023/06/14 01:39:11;;;;;;;2.00;2.00;;;23.60;63.10;;;;;;5110373;28;43467;-68
2023/06/14 01:41:40;;;;;;;1.87;1.87;;;23.60;63.10;;;;;;5110225;27;43455;-69
2023/06/14 01:44:08;;;;;;;1.97;1.97;;;23.50;63.80;;;;;;5109507;27;44335;-68
2023/06/14 01:46:36;;;;;;;2.10;2.10;;;23.50;63.80;;;;;;5109928;27;43450;-68
2023/06/14 01:49:04;;;;;;;2.00;2.00;;;23.50;63.80;;;;;;5108060;27;43882;-68
2023/06/14 01:51:33;;;;;;;2.00;2.00;;;23.40;64.10;;;;;;5110288;27;43460;-69
2023/06/14 01:54:01;;;;;;;1.87;1.87;;;23.30;64.50;;;;;;5110101;28;43732;-68
2023/06/14 01:56:29;;;;;;;2.03;2.03;;;23.30;64.40;;;;;;5109599;27;43537;-68
2023/06/14 01:58:59;;;;;;;1.90;1.90;;;23.30;64.50;;;;;;5108001;27;43422;-68
2023/06/14 02:01:27;;;;;;;1.90;1.90;;;23.30;64.70;;;;;;5108669;27;43687;-68
2023/06/14 02:03:55;;;;;;;2.03;2.03;;;23.20;64.80;;;;;;5106235;28;43615;-68
2023/06/14 02:06:23;;;;;;;2.17;2.17;;;23.20;64.80;;;;;;5109408;28;43872;-69
2023/06/14 02:08:51;;;;;;;1.80;1.80;;;23.30;64.60;;;;;;5109423;27;43504;-68
2023/06/14 02:11:20;;;;;;;1.83;1.83;;;23.40;64.20;;;;;;5110225;27;43343;-68
2023/06/14 02:13:48;;;;;;;2.20;2.20;;;23.50;63.80;;;;;;5109583;28;44070;-68
2023/06/14 02:16:17;;;;;;;2.10;2.10;;;23.50;63.30;;;;;;5108378;28;44689;-68
2023/06/14 02:18:48;;;;;;;1.90;1.90;;;23.60;63.70;;;;;;5109038;28;43405;-68
2023/06/14 02:21:18;;;;;;;2.00;2.00;;;23.50;63.30;;;;;;5108833;28;43643;-68
2023/06/14 02:23:46;;;;;;;1.80;1.80;;;23.40;64.20;;;;;;5108313;28;46075;-68
2023/06/14 02:26:14;;;;;;;2.00;2.00;;;23.40;64.10;;;;;;5102359;27;43400;-69
2023/06/14 02:28:43;;;;;;;2.00;2.00;;;23.40;64.00;;;;;;5110104;27;43425;-68
2023/06/14 02:31:13;;;;;;;2.00;2.00;;;23.30;65.10;;;;;;5108721;28;43411;-68
2023/06/14 02:33:43;;;;;;;2.00;2.00;;;23.30;64.80;;;;;;5105742;27;43611;-68
2023/06/14 02:36:11;;;;;;;1.90;1.90;;;23.30;64.80;;;;;;5109341;27;43387;-68
2023/06/14 02:38:39;;;;;;;2.00;2.00;;;23.30;64.40;;;;;;5106953;28;43440;-68
2023/06/14 02:41:09;;;;;;;2.00;2.00;;;23.40;64.20;;;;;;5110065;28;43432;-68
2023/06/14 02:43:37;;;;;;;2.13;2.13;;;23.40;63.80;;;;;;5108896;27;44205;-69
2023/06/14 02:46:07;;;;;;;2.00;2.00;;;23.40;63.50;;;;;;5107543;28;45143;-68
2023/06/14 02:48:35;;;;;;;2.00;2.00;;;23.40;64.30;;;;;;5108854;27;43382;-68
2023/06/14 02:51:06;;;;;;;2.10;2.10;;;23.40;64.10;;;;;;5109472;27;43587;-68
2023/06/14 02:53:33;;;;;;;1.90;1.90;;;23.30;64.10;;;;;;5108234;28;45999;-68
2023/06/14 02:56:03;;;;;;;1.90;1.90;;;23.40;64.00;;;;;;5108402;27;43386;-69
2023/06/14 02:58:32;;;;;;;1.90;1.90;;;23.30;64.40;;;;;;5107494;28;43425;-68
2023/06/14 03:01:03;;;;;;;2.00;2.00;;;23.30;64.70;;;;;;5111323;27;43398;-68
2023/06/14 03:03:31;;;;;;;1.90;1.90;;;23.30;64.60;;;;;;5107333;28;44926;-68
2023/06/14 03:06:04;;;;;;;1.90;1.90;;;23.30;64.60;;;;;;5100703;28;43865;-68
2023/06/14 03:08:38;;;;;;;1.90;1.90;;;23.20;64.70;;;;;;5102252;28;43382;-68
2023/06/14 03:11:13;;;;;;;2.00;2.00;;;23.20;64.90;;;;;;5108043;28;43496;-68
2023/06/14 03:13:41;;;;;;;2.00;2.00;;;23.20;64.80;;;;;;5108769;27;44060;-68
2023/06/14 03:16:10;;;;;;;1.90;1.90;;;23.20;64.80;;;;;;5107009;28;44910;-67
2023/06/14 03:18:40;;;;;;;1.90;1.90;;;23.20;65.00;;;;;;5108219;28;43491;-68
2023/06/14 03:21:10;;;;;;;2.03;2.03;;;23.20;65.30;;;;;;5108399;28;43720;-68
2023/06/14 03:23:43;;;;;;;2.10;2.10;;;23.10;65.00;;;;;;5104668;28;44077;-68
2023/06/14 03:26:14;;;;;;;2.00;2.00;;;23.20;64.70;;;;;;5107589;28;43817;-68
2023/06/14 03:28:43;;;;;;;1.90;1.90;;;23.40;64.40;;;;;;5107914;28;43432;-68
2023/06/14 03:31:11;;;;;;;2.23;2.10;;;23.50;63.90;;;;;;5108643;28;43448;-68
2023/06/14 03:33:39;;;;;;;2.10;2.10;;;23.60;63.60;;;;;;5107817;27;44839;-68
2023/06/14 03:36:08;;;;;;;1.90;1.90;;;23.50;63.20;;;;;;5107638;27;43824;-68
2023/06/14 03:38:36;;;;;;;1.93;1.87;;;23.50;63.70;;;;;;5108992;28;43347;-68
2023/06/14 03:41:07;;;;;;;1.87;1.87;;;23.50;64.10;;;;;;5108493;28;43441;-68
2023/06/14 03:43:35;;;;;;;2.00;2.00;;;23.40;63.90;;;;;;5106503;28;44671;-68
2023/06/14 03:46:03;;;;;;;2.13;2.13;;;23.40;63.80;;;;;;5107753;27;43422;-68
2023/06/14 03:48:33;;;;;;;2.00;2.00;;;23.40;64.20;;;;;;5103546;28;43411;-69
2023/06/14 03:51:03;;;;;;;1.70;1.70;;;23.30;64.30;;;;;;5107443;28;43839;-68
2023/06/14 03:53:31;;;;;;;2.13;2.03;;;23.30;64.40;;;;;;5107525;28;45702;-68
2023/06/14 03:55:59;;;;;;;2.00;2.00;;;23.30;64.30;;;;;;5107310;28;43473;-68
2023/06/14 03:58:37;;;;;;;1.90;1.90;;;23.20;64.50;;;;;;5107057;28;43355;-68
2023/06/14 04:01:07;;;;;;;2.07;2.07;;;23.20;64.50;;;;;;5102772;28;43394;-69
2023/06/14 04:03:35;;;;;;;2.00;2.00;;;23.20;64.70;;;;;;5100648;28;45734;-69
2023/06/14 04:06:05;;;;;;;2.33;2.33;;;23.20;64.50;;;;;;5106485;27;44593;-68
2023/06/14 04:08:34;;;;;;;2.10;2.10;;;23.30;64.20;;;;;;5107823;28;43340;-68
2023/06/14 04:11:02;;;;;;;2.23;2.23;;;23.40;63.70;;;;;;5107754;27;43533;-68
2023/06/14 04:13:30;;;;;;;2.20;2.20;;;23.40;62.70;;;;;;5110901;27;43717;-68
2023/06/14 04:16:02;;;;;;;2.10;2.10;;;23.50;62.40;;;;;;5105712;28;45136;-68
2023/06/14 04:18:34;;;;;;;2.20;2.20;;;23.50;62.80;;;;;;5120154;27;43351;-68
2023/06/14 04:21:02;;;;;;;2.00;2.00;;;23.40;63.10;;;;;;5112099;28;44441;-68
2023/06/14 04:23:30;;;;;;;2.20;2.13;;;23.40;63.80;;;;;;5110174;28;46009;-68
2023/06/14 04:26:02;;;;;;;2.00;2.00;;;23.40;63.50;;;;;;5132419;27;43396;-68
2023/06/14 04:28:30;;;;;;;2.10;2.10;;;23.30;63.80;;;;;;5109904;27;43467;-68
2023/06/14 04:31:01;;;;;;;2.17;2.17;;;23.30;63.90;;;;;;5111681;28;43384;-68
2023/06/14 04:33:32;;;;;;;2.47;2.47;;;23.30;64.00;;;;;;5107595;27;44077;-68
2023/06/14 04:36:00;;;;;;;2.37;2.37;;;23.20;63.60;;;;;;5110979;27;44585;-68
2023/06/14 04:38:28;;;;;;;2.33;2.33;;;23.20;64.00;;;;;;5108274;27;43375;-68
2023/06/14 04:41:01;;;;;;;2.50;2.50;;;23.20;64.20;;;;;;5114101;27;43592;-68
2023/06/14 04:43:29;;;;;;;2.27;2.27;;;23.20;64.00;;;;;;5111553;27;43861;-67
2023/06/14 04:45:58;;;;;;;2.40;2.30;;;23.20;64.30;;;;;;5108097;27;43992;-67
2023/06/14 04:48:28;;;;;;;2.10;2.10;;;23.20;64.10;;;;;;5109931;28;43469;-68
2023/06/14 04:50:57;;;;;;;2.20;2.20;;;23.20;64.40;;;;;;5110269;28;43434;-67
2023/06/14 04:53:28;;;;;;;2.20;2.20;;;23.10;64.40;;;;;;5111410;27;43789;-67
2023/06/14 04:55:56;;;;;;;2.43;2.43;;;23.10;64.50;;;;;;5111628;27;43943;-67
2023/06/14 04:58:25;;;;;;;2.70;2.67;;;23.10;64.30;;;;;;5111214;28;43382;-68
2023/06/14 05:00:53;;;;;;;2.40;2.40;;;23.20;64.00;;;;;;5111175;28;43398;-68
2023/06/14 05:03:21;;;;;;;2.20;2.20;;;23.30;63.60;;;;;;5110240;28;44140;-68
2023/06/14 05:05:53;;;;;;;2.50;2.50;;;23.40;63.40;;;;;;5110429;28;43484;-68
2023/06/14 05:08:23;;;;;;;2.37;2.37;;;23.50;62.60;;;;;;5109895;28;43476;-68
2023/06/14 05:10:51;;;;;;;2.17;2.17;;;23.50;62.50;;;;;;5110413;27;43430;-67
2023/06/14 05:13:20;;;;;;;2.53;2.43;;;23.40;63.10;;;;;;5109982;28;45720;-67
2023/06/14 05:15:48;;;;;;;2.90;2.70;;;23.40;63.40;;;;;;5111622;27;43416;-67
2023/06/14 05:18:16;;;;;;;2.57;2.47;;;23.40;63.50;;;;;;5111447;27;43374;-68
2023/06/14 05:20:44;;;;;;;2.43;2.43;;;23.30;63.30;;;;;;5112221;28;43651;-68
2023/06/14 05:23:14;;;;;;;2.37;2.37;;;23.30;63.70;;;;;;5111708;27;43602;-67
2023/06/14 05:25:44;;;;;;;2.40;2.40;;;23.30;63.70;;;;;;5111082;27;43833;-67
2023/06/14 05:28:13;;;;;;;2.63;2.53;;;23.20;64.00;;;;;;5111249;28;43432;-68
2023/06/14 05:30:40;;;;;;;2.37;2.37;;;23.20;63.90;;;;;;5111805;28;43406;-67
2023/06/14 05:33:09;;;;;;;2.00;2.00;;;23.20;64.20;;;;;;5111305;28;43912;-67
2023/06/14 05:35:37;;;;;;;2.40;2.40;;;23.20;64.00;;;;;;5110520;28;43430;-68
2023/06/14 05:38:07;;;;;;;2.30;2.30;;;23.10;64.40;;;;;;5110428;28;43383;-68
2023/06/14 05:40:36;;;;;;;2.50;2.50;;;23.10;64.20;;;;;;5111670;27;43433;-68
2023/06/14 05:43:04;;;;;;;2.57;2.47;;;23.10;64.40;;;;;;5108788;27;44134;-67
2023/06/14 05:45:32;;;;;;;2.50;2.50;;;23.10;64.10;;;;;;5109958;28;43525;-68
2023/06/14 05:48:00;;;;;;;2.50;2.50;;;23.10;64.30;;;;;;5110852;27;43469;-68
2023/06/14 05:50:28;;;;;;;2.40;2.40;;;23.10;64.60;;;;;;5111653;27;43529;-69
2023/06/14 05:52:56;;;;;;;2.33;2.23;;;23.10;64.20;;;;;;5109412;28;45559;-69
2023/06/14 05:55:24;;;;;;;2.40;2.40;;;23.20;63.80;;;;;;5110388;27;43425;-68
2023/06/14 05:57:54;;;;;;;2.50;2.40;;;23.40;63.50;;;;;;5110989;27;43421;-68
2023/06/14 06:00:22;;;;;;;2.53;2.53;;;23.40;63.00;;;;;;5111016;28;43496;-68
2023/06/14 06:02:50;;;;;;;2.70;2.60;;;23.50;62.90;;;;;;5109656;27;43610;-68
2023/06/14 06:05:19;;;;;;;2.47;2.47;;;23.50;62.80;;;;;;5109853;27;43403;-68
2023/06/14 06:07:48;;;;;;;2.27;2.27;;;23.40;63.20;;;;;;5109860;27;43280;-68
2023/06/14 06:10:16;;;;;;;2.40;2.40;;;23.30;63.40;;;;;;5110637;28;43395;-68
2023/06/14 06:12:43;;;;;;;2.30;2.30;;;23.30;63.30;;;;;;5109716;27;43586;-68
2023/06/14 06:15:14;;;;;;;2.50;2.40;;;23.30;63.70;;;;;;5104089;28;43613;-68
2023/06/14 06:17:42;;;;;;;2.33;2.33;;;23.20;63.70;;;;;;5106044;28;43458;-68
2023/06/14 06:20:27;;;;;;;2.50;2.50;;;23.20;64.10;;;;;;5109588;28;43502;-69
2023/06/14 06:22:57;;;;;;;2.80;2.70;;;23.20;63.90;;;;;;5109658;27;43977;-68
2023/06/14 06:25:25;;;;;;;2.60;2.60;;;23.20;64.10;;;;;;5109383;28;43813;-68
2023/06/14 06:27:54;;;;;;;2.70;2.60;;;23.10;64.10;;;;;;5109347;27;43392;-68
2023/06/14 06:30:23;;;;;;;2.43;2.43;;;23.10;64.50;;;;;;5110290;28;43793;-68
2023/06/14 06:32:51;;;;;;;2.50;2.50;;;23.10;64.10;;;;;;5109649;27;43603;-69
2023/06/14 06:35:19;;;;;;;2.70;2.60;;;23.20;63.80;;;;;;5109075;27;43461;-69
2023/06/14 06:37:47;;;;;;;2.73;2.63;;;23.30;63.50;;;;;;5109177;27;43400;-68
2023/06/14 06:40:15;;;;;;;3.00;2.90;;;23.40;63.20;;;;;;5109994;27;43504;-68
2023/06/14 06:42:43;;;;;;;2.50;2.50;;;23.40;62.80;;;;;;5110330;27;43837;-68
2023/06/14 06:45:13;;;;;;;2.53;2.43;;;23.40;62.70;;;;;;5108398;28;43425;-68
2023/06/14 06:47:43;;;;;;;2.63;2.60;;;23.40;63.20;;;;;;5108747;28;43414;-68
2023/06/14 06:50:11;;;;;;;2.57;2.57;;;23.30;63.80;;;;;;5110128;27;43407;-69
2023/06/14 06:52:39;;;;;;;2.33;2.33;;;23.20;63.60;;;;;;5109871;27;43822;-69
2023/06/14 06:55:08;;;;;;;2.47;2.40;;;23.20;63.60;;;;;;5107668;28;45084;-68
2023/06/14 06:57:36;;;;;;;2.53;2.53;;;23.20;63.90;;;;;;5108456;28;43450;-68
2023/06/14 07:00:07;;;;;;;2.40;2.40;;;23.10;64.10;;;;;;5108111;28;43465;-69
2023/06/14 07:02:35;;;;;;;2.70;2.70;;;23.10;64.20;;;;;;5109769;27;43774;-69
2023/06/14 07:05:05;;;;;;;2.50;2.50;;;23.10;64.30;;;;;;5109477;27;43345;-67
2023/06/14 07:07:33;;;;;;;2.47;2.37;;;23.10;64.40;;;;;;5109305;27;43399;-67
2023/06/14 07:10:04;;;;;;;2.47;2.37;;;23.00;64.30;;;;;;5109661;28;43410;-67
2023/06/14 07:12:33;;;;;;;2.30;2.30;;;23.00;64.60;;;;;;5109812;28;43762;-67
2023/06/14 07:15:01;;;;;;;2.90;2.80;;;23.10;64.30;;;;;;5109783;27;43349;-67
2023/06/14 07:17:31;;;;;;;2.77;2.70;;;23.20;64.00;;;;;;5108311;28;43385;-68
2023/06/14 07:19:59;;;;;;;2.50;2.50;;;23.30;63.60;;;;;;5109461;28;43549;-68
2023/06/14 07:22:28;;;;;;;2.63;2.60;;;23.40;63.30;;;;;;5109506;27;43851;-68
2023/06/14 07:24:56;;;;;;;2.40;2.40;;;23.40;63.00;;;;;;5108721;28;44961;-67
2023/06/14 07:27:24;;;;;;;2.47;2.47;;;23.30;63.00;;;;;;5109587;28;43441;-68
2023/06/14 07:29:52;;;;;;;2.27;2.27;;;23.30;63.50;;;;;;5102668;28;43465;-68
2023/06/14 07:32:20;;;;;;;2.40;2.40;;;23.20;63.80;;;;;;5108973;28;43672;-67
2023/06/14 07:34:48;;;;;;;2.50;2.50;;;23.20;63.80;;;;;;5102699;28;43940;-67
2023/06/14 07:37:16;;;;;;;2.70;2.50;;;23.20;63.90;;;;;;5106300;27;43800;-67
2023/06/14 07:39:45;;;;;;;2.50;2.50;;;23.10;63.90;;;;;;5107917;28;43393;-67
2023/06/14 07:42:13;;;;;;;2.30;2.27;;;23.10;64.50;;;;;;5103306;27;43669;-68
2023/06/14 07:44:41;;;;;;;2.70;2.60;;;23.10;64.50;;;;;;5102212;28;43430;-68
2023/06/14 07:47:09;;;;;;;2.70;2.60;;;23.10;64.50;;;;;;5107951;27;43447;-69
2023/06/14 07:49:37;;;;;;;2.17;2.17;;;23.00;64.30;;;;;;5103821;28;43441;-67
2023/06/14 07:52:06;;;;;;;2.60;2.60;;;23.00;64.30;;;;;;5108319;27;43594;-69
2023/06/14 07:54:34;;;;;;;2.40;2.40;;;23.00;65.40;;;;;;5102366;28;43429;-68
2023/06/14 07:57:04;;;;;;;2.63;2.63;;;23.00;64.60;;;;;;5108709;28;43418;-68
2023/06/14 07:59:32;;;;;;;2.47;2.47;;;23.00;64.80;;;;;;5108353;27;43426;-67
2023/06/14 08:02:00;;;;;;;2.83;2.73;;;23.00;64.60;;;;;;5108705;28;43668;-67
2023/06/14 08:04:28;;;;;;;2.77;2.67;;;22.90;64.80;;;;;;5108542;28;44041;-67
2023/06/14 08:06:59;;;;;;;2.47;2.47;;;23.00;64.70;;;;;;5108917;27;43468;-68
2023/06/14 08:09:28;;;;;;;2.40;2.40;;;23.10;64.40;;;;;;5108860;27;43295;-67
2023/06/14 08:11:56;;;;;;;2.70;2.60;;;23.10;64.00;;;;;;5108491;27;43579;-67
2023/06/14 08:14:25;;;;;;;2.53;2.53;;;23.20;63.60;;;;;;5109041;27;43310;-67
2023/06/14 08:16:53;;;;;;;2.73;2.63;;;23.30;63.30;;;;;;5108349;28;43472;-68
2023/06/14 08:19:21;;;;;;;2.10;2.10;;;23.30;63.10;;;;;;5107540;28;43430;-67
2023/06/14 08:21:50;;;;;;;2.37;2.37;;;23.30;63.30;;;;;;5107368;28;45815;-68
2023/06/14 08:24:18;;;;;;;2.90;2.70;;;23.30;63.70;;;;;;5108726;28;43455;-68
2023/06/14 08:26:47;;;;;;;2.43;2.43;;;23.20;63.70;;;;;;5108226;27;43500;-68
2023/06/14 08:29:15;;;;;;;2.40;2.30;;;23.20;63.80;;;;;;5107936;28;43444;-68
2023/06/14 08:31:44;;;;;;;2.33;2.33;;;23.20;63.60;;;;;;5108486;27;43814;-68
2023/06/14 08:34:14;;;;;;;2.40;2.30;;;23.10;63.40;;;;;;5107990;28;43402;-68
2023/06/14 08:36:42;;;;;;;2.80;2.80;;;23.00;63.90;;;;;;5108275;27;43364;-69
2023/06/14 08:39:10;;;;;;;2.27;2.27;;;23.00;63.90;;;;;;5108353;27;43429;-68
2023/06/14 08:41:39;;;;;;;2.50;2.50;;;23.00;64.90;;;;;;5107167;27;43623;-69
2023/06/14 08:44:07;;;;;;;2.57;2.57;;;23.00;63.80;;;;;;5106579;27;43312;-68
2023/06/14 08:46:36;;;;;;;2.30;2.30;;;22.90;63.70;;;;;;5106546;27;43378;-68
2023/06/14 08:49:06;;;;;;;2.50;2.50;;;22.90;64.50;;;;;;5107669;28;43383;-69
2023/06/14 08:51:36;;;;;;;2.30;2.30;;;22.90;64.20;;;;;;5107304;27;43854;-68
2023/06/14 08:54:04;;;;;;;2.70;2.70;;;23.00;64.30;;;;;;5109661;27;44406;-68
2023/06/14 08:56:33;;;;;;;2.10;2.10;;;22.90;63.60;;;;;;5103229;27;43404;-68
2023/06/14 08:59:02;;;;;;;2.73;2.60;;;22.90;63.50;;;;;;5110792;27;43460;-68
2023/06/14 09:01:34;;;;;;;2.40;2.40;;;22.90;64.50;;;;;;5107874;28;43950;-68
2023/06/14 09:04:05;;;;;;;2.67;2.60;;;22.90;64.20;;;;;;5110050;27;43458;-68
2023/06/14 09:06:36;;;;;;;2.40;2.40;;;23.10;63.90;;;;;;5110825;27;44375;-68
2023/06/14 09:09:04;;;;;;;2.67;2.57;;;23.20;63.50;;;;;;5111489;27;43475;-68
2023/06/14 09:11:32;;;;;;;2.80;2.80;;;23.30;63.30;;;;;;5110306;28;43512;-68
2023/06/14 09:14:00;;;;;;;2.57;2.47;;;23.30;62.60;;;;;;5110925;27;43376;-68
2023/06/14 09:16:28;;;;;;;2.23;2.23;;;23.20;62.50;;;;;;5110352;28;43367;-68
2023/06/14 09:18:56;;;;;;;2.13;2.13;;;23.20;62.50;;;;;;5110786;27;43383;-68
2023/06/14 09:21:27;;;;;;;2.50;2.50;;;23.10;63.50;;;;;;5110329;27;43876;-67
2023/06/14 09:24:00;;;;;;;2.40;2.40;;;23.10;63.60;;;;;;5110467;27;43363;-68
2023/06/14 09:26:28;;;;;;;2.70;2.60;;;23.00;63.70;;;;;;5110115;27;43350;-67
2023/06/14 09:28:56;;;;;;;2.43;2.43;;;23.00;63.70;;;;;;5114715;27;43468;-67
2023/06/14 09:31:24;;;;;;;2.50;2.50;;;22.90;63.80;;;;;;5109972;27;43774;-67
2023/06/14 09:33:55;;;;;;;2.83;2.73;;;22.90;64.20;;;;;;5109975;27;43418;-67
2023/06/14 09:36:23;;;;;;;2.60;2.50;;;22.90;64.30;;;;;;5109690;27;43343;-67
2023/06/14 09:38:54;;;;;;;2.73;2.53;;;23.00;64.00;;;;;;5110571;28;43508;-68
2023/06/14 09:41:31;;;;;;;2.77;2.63;;;23.20;63.40;;;;;;5104371;28;44499;-68
2023/06/14 09:44:00;;;;;;;2.60;2.50;;;23.40;62.90;;;;;;5110138;28;43686;-67
2023/06/14 09:46:28;;;;;;;2.80;2.70;;;23.60;62.30;;;;;;5110957;27;43419;-68
2023/06/14 09:48:57;;;;;;;2.60;2.50;;;23.80;61.60;;;;;;5110249;27;43324;-68
2023/06/14 09:51:25;;;;;;;2.80;2.70;;;23.90;61.10;;;;;;5109273;27;43712;-67
2023/06/14 09:53:54;;;;;;;2.73;2.67;;;24.00;60.60;;;;;;5109418;27;43919;-68
2023/06/14 09:56:27;;;;;;;2.87;2.80;;;24.10;60.50;;;;;;5108267;28;43376;-69
2023/06/14 09:58:56;;;;;;;3.10;3.00;;;24.20;60.30;;;;;;5110259;27;43390;-68
2023/06/14 10:01:35;;;;;;;2.73;2.70;;;24.20;60.10;;;;;;5109916;28;43890;-69
2023/06/14 10:04:04;;;;;;;2.53;2.43;;;24.20;60.00;;;;;;5108886;27;43512;-68
2023/06/14 10:06:39;;;;;;;2.70;2.70;;;24.10;60.20;;;;;;5108490;28;43390;-68
2023/06/14 10:13:16;;;;;;;2.60;2.50;;;23.90;60.70;;;;;;5103507;28;43619;-68
2023/06/14 10:15:49;;;;;;;2.70;2.60;;;23.80;60.60;;;;;;5109562;27;43449;-68
2023/06/14 10:18:22;;;;;;;2.60;2.60;;;23.70;61.20;;;;;;5109400;27;43398;-68
2023/06/14 10:20:53;;;;;;;2.60;2.50;;;23.50;61.20;;;;;;5109564;27;43495;-68
2023/06/14 10:23:23;;;;;;;3.10;2.90;;;23.50;61.70;;;;;;5109317;27;43864;-69
2023/06/14 10:25:51;;;;;;;2.93;2.83;;;23.50;62.20;;;;;;5111719;27;43428;-68
2023/06/14 10:28:22;;;;;;;3.10;3.00;;;23.60;62.00;;;;;;5108607;27;43397;-69
2023/06/14 10:31:03;;;;;;;2.50;2.50;;;23.60;61.00;;;;;;5108729;27;43350;-68
2023/06/14 10:33:31;;;;;;;2.80;2.70;;;23.60;61.00;;;;;;5107908;28;44905;-68
2023/06/14 10:36:27;;;;;;;3.07;2.87;;;23.60;61.60;;;;;;5108294;27;43423;-68
2023/06/14 10:38:59;;;;;;;2.70;2.60;;;23.40;61.50;;;;;;5103300;27;43434;-68
2023/06/14 10:41:28;;;;;;;3.00;2.77;;;23.40;62.60;;;;;;5109087;28;43712;-68
2023/06/14 10:44:38;;;;;;;2.70;2.60;;;23.40;62.70;;;;;;5106988;27;44012;-68
2023/06/14 10:47:10;;;;;;;2.60;2.50;;;23.30;62.70;;;;;;5108312;27;43912;-67
2023/06/14 10:49:41;;;;;;;2.50;2.50;;;23.30;63.30;;;;;;5109834;27;43398;-68
2023/06/14 10:52:18;;;;;;;3.07;2.93;;;23.20;62.90;;;;;;5109097;27;43396;-67
2023/06/14 10:55:09;;;;;;;2.90;2.80;;;23.20;63.30;;;;;;5108426;27;43615;-67
2023/06/14 10:57:38;;;;;;;2.53;2.50;;;23.20;62.20;;;;;;5109233;27;43438;-68
2023/06/14 11:00:22;;;;;;;2.90;2.80;;;23.10;63.40;;;;;;5108515;27;44023;-69
2023/06/14 11:03:09;;;;;;;2.90;2.70;;;23.10;63.80;;;;;;5103040;28;43756;-68
2023/06/14 11:05:43;;;;;;;2.53;2.40;;;23.10;63.50;;;;;;5106265;27;43846;-68
2023/06/14 11:08:28;;;;;;;2.77;2.70;;;23.20;62.20;;;;;;5108652;28;43431;-68
2023/06/14 11:10:56;;;;;;;3.00;2.83;;;23.40;62.10;;;;;;5109258;27;43794;-68
2023/06/14 11:13:25;;;;;;;2.77;2.67;;;23.40;62.50;;;;;;5108707;27;43544;-69
2023/06/14 11:15:57;;;;;;;2.80;2.67;;;23.40;62.50;;;;;;5107677;28;43650;-68
2023/06/14 11:18:27;;;;;;;2.97;2.77;;;23.30;62.60;;;;;;5102123;28;43449;-68
2023/06/14 11:20:55;;;;;;;3.00;2.90;;;23.30;63.10;;;;;;5100353;27;43398;-68
2023/06/14 11:23:23;;;;;;;3.00;2.90;;;23.20;63.10;;;;;;5118790;27;44064;-68
2023/06/14 11:25:54;;;;;;;2.80;2.70;;;23.20;63.30;;;;;;5107989;28;43792;-68
2023/06/14 11:28:25;;;;;;;3.07;2.90;;;23.20;62.90;;;;;;5107425;27;43489;-68
2023/06/14 11:31:01;;;;;;;3.00;2.90;;;23.10;63.60;;;;;;5107341;28;43355;-68
2023/06/14 11:33:30;;;;;;;2.83;2.73;;;23.10;63.70;;;;;;5107897;27;43434;-69
2023/06/14 11:35:58;;;;;;;3.17;2.97;;;23.10;63.80;;;;;;5108011;28;43774;-68
2023/06/14 11:38:26;;;;;;;2.77;2.77;;;23.10;62.80;;;;;;5108501;27;43398;-68
2023/06/14 11:40:54;;;;;;;2.80;2.70;;;23.00;63.40;;;;;;5111230;27;43392;-68
2023/06/14 11:43:22;;;;;;;3.30;3.10;;;23.00;64.10;;;;;;5105987;27;43495;-68
2023/06/14 11:45:53;;;;;;;3.50;3.20;;;23.00;63.60;;;;;;5107711;27;43590;-68
2023/06/14 11:48:41;;;;;;;2.73;2.63;;;23.10;63.30;;;;;;5107745;27;43592;-67
2023/06/14 11:51:11;;;;;;;3.40;3.30;;;23.20;62.90;;;;;;5108059;27;43390;-67
2023/06/14 11:53:39;;;;;;;3.03;2.83;;;23.30;62.60;;;;;;5108864;27;43463;-68
2023/06/14 11:56:07;;;;;;;3.23;3.03;;;23.30;62.80;;;;;;5107275;28;43803;-67
2023/06/14 11:58:35;;;;;;;2.67;2.57;;;23.30;62.40;;;;;;5101676;27;43511;-67
2023/06/14 12:01:04;;;;;;;3.37;3.10;;;23.20;63.10;;;;;;5108256;27;43347;-67
2023/06/14 12:03:32;;;;;;;3.17;3.07;;;23.10;63.40;;;;;;5108320;27;43487;-68
2023/06/14 12:06:05;;;;;;;3.10;3.00;;;23.10;63.50;;;;;;5107541;27;43603;-67
2023/06/14 12:08:38;;;;;;;2.63;2.53;;;23.10;63.50;;;;;;5102217;27;43434;-67
2023/06/14 12:11:08;;;;;;;3.13;2.93;;;23.10;63.50;;;;;;5102616;28;43414;-67
2023/06/14 12:13:38;;;;;;;3.10;3.00;;;23.00;63.90;;;;;;5107929;27;43407;-67
2023/06/14 12:16:09;;;;;;;2.90;2.80;;;23.00;63.90;;;;;;5108897;27;43614;-67
2023/06/14 12:18:38;;;;;;;3.20;3.00;;;23.00;64.00;;;;;;5110904;27;43402;-67
2023/06/14 12:21:07;;;;;;;3.00;2.90;;;22.90;63.70;;;;;;5107670;28;43458;-67
2023/06/14 12:23:44;;;;;;;3.10;2.93;;;22.90;64.30;;;;;;5109106;27;43391;-68
2023/06/14 12:26:14;;;;;;;3.37;3.07;;;22.90;64.00;;;;;;5107536;28;43775;-68
2023/06/14 12:28:42;;;;;;;7.13;3.70;;;23.00;63.30;;;;;;5107967;27;43868;-68
2023/06/14 12:31:12;;;;;;;6.87;3.97;;;23.10;63.50;;;;;;5107829;27;43393;-68
2023/06/14 12:33:40;;;;;;;5.83;4.20;;;23.20;63.20;;;;;;5111054;27;43442;-68
2023/06/14 12:36:10;;;;;;;12.10;4.87;;;23.20;63.30;;;;;;5110471;28;43852;-68
2023/06/14 12:38:38;;;;;;;10.17;4.27;;;23.20;63.30;;;;;;5111354;27;43360;-68
2023/06/14 12:41:07;;;;;;;12.17;5.00;;;23.20;63.40;;;;;;5110618;28;43403;-68
2023/06/14 12:43:35;;;;;;;8.97;4.87;;;23.10;63.90;;;;;;5110306;28;43542;-68
2023/06/14 12:46:03;;;;;;;13.73;5.00;;;23.10;64.00;;;;;;5111216;28;43695;-68
2023/06/14 12:48:31;;;;;;;6.93;4.87;;;23.00;63.90;;;;;;5110751;27;43402;-68
2023/06/14 12:50:59;;;;;;;10.90;5.67;;;23.00;63.70;;;;;;5111101;27;43421;-68
2023/06/14 12:53:29;;;;;;;12.70;5.47;;;22.90;64.50;;;;;;5112001;28;43442;-68
2023/06/14 12:55:57;;;;;;;14.83;6.33;;;23.00;64.60;;;;;;5109348;28;43839;-68
2023/06/14 12:58:25;;;;;;;9.77;5.20;;;23.10;64.20;;;;;;5110281;27;43409;-68
2023/06/14 13:00:53;;;;;;;12.10;4.97;;;23.20;64.00;;;;;;5110566;27;43427;-68
2023/06/14 13:03:21;;;;;;;10.70;5.37;;;23.20;63.70;;;;;;5110698;28;43356;-68